Orbital elements of METEOR 2-8 DEB
| Launched | 24 March 1982 |
| Flight ended | – |
| Launch site | Plesetsk Missile and Space Complex, Russia |
| Owner | Commonwealth of Independent States (former USSR) |
| NORAD ID | 36330 |
| Date fetched |
Epoch osculation |
Inc. [°] |
Ecc. | RA asc node [hr] |
Arg Peri. [°] |
Mean anom [°] |
Mean motion [rev/day] |
Abs. mag |
| Date fetched |
Epoch osculation |
Inc. [°] |
Ecc. | RA asc node [hr] |
Arg Peri. [°] |
Mean anom [°] |
Mean motion [rev/day] |
Abs. mag |
| 2026 May 03 17:57 | 2026 Apr 29 13:54:06 | 82.5321 | 0.00265 | 15.6335 | 98.5764 | 261.8424 | 14.32444 | – |
| 2026 May 02 17:57 | 2026 Apr 29 13:54:06 | 82.5321 | 0.00265 | 15.6335 | 98.5764 | 261.8424 | 14.32444 | – |
| 2026 May 01 17:56 | 2026 Apr 29 13:54:06 | 82.5321 | 0.00265 | 15.6335 | 98.5764 | 261.8424 | 14.32444 | – |
| 2026 Apr 30 17:56 | 2026 Apr 29 13:54:06 | 82.5321 | 0.00265 | 15.6335 | 98.5764 | 261.8424 | 14.32444 | – |
| 2026 Apr 29 17:57 | 2026 Apr 23 01:59:14 | 82.5310 | 0.00271 | 16.0069 | 116.4879 | 261.8424 | 14.32444 | – |
| 2026 Apr 28 17:56 | 2026 Apr 23 01:59:14 | 82.5310 | 0.00271 | 16.0069 | 116.4879 | 261.8424 | 14.32444 | – |
| 2026 Apr 27 17:58 | 2026 Apr 23 01:59:14 | 82.5310 | 0.00271 | 16.0069 | 116.4879 | 261.8424 | 14.32444 | – |
| 2026 Apr 26 17:58 | 2026 Apr 23 01:59:14 | 82.5310 | 0.00271 | 16.0069 | 116.4879 | 261.8424 | 14.32444 | – |
| 2026 Apr 25 17:58 | 2026 Apr 23 01:59:14 | 82.5310 | 0.00271 | 16.0069 | 116.4879 | 261.8424 | 14.32444 | – |
| 2026 Apr 24 17:59 | 2026 Apr 23 01:59:14 | 82.5310 | 0.00271 | 16.0069 | 116.4879 | 261.8424 | 14.32444 | – |
| 2026 Apr 23 17:57 | 2026 Apr 19 02:25:20 | 82.5319 | 0.00274 | 16.2357 | 127.2472 | 261.8424 | 14.32444 | – |
| 2026 Apr 22 17:57 | 2026 Apr 19 02:25:20 | 82.5319 | 0.00274 | 16.2357 | 127.2472 | 261.8424 | 14.32444 | – |
| 2026 Apr 21 17:57 | 2026 Apr 19 02:25:20 | 82.5319 | 0.00274 | 16.2357 | 127.2472 | 261.8424 | 14.32444 | – |
| 2026 Apr 20 17:57 | 2026 Apr 19 02:25:20 | 82.5319 | 0.00274 | 16.2357 | 127.2472 | 261.8424 | 14.32444 | – |
| 2026 Apr 19 17:58 | 2026 Apr 19 02:25:20 | 82.5319 | 0.00274 | 16.2357 | 127.2472 | 261.8424 | 14.32444 | – |
| 2026 Apr 18 17:56 | 2026 Apr 12 16:10:17 | 82.5282 | 0.00274 | 16.6049 | 144.7547 | 261.8424 | 14.32444 | – |
| 2026 Apr 16 17:57 | 2026 Apr 12 16:10:17 | 82.5282 | 0.00274 | 16.6049 | 144.7547 | 261.8424 | 14.32444 | – |
| 2026 Apr 14 17:57 | 2026 Apr 12 16:10:17 | 82.5282 | 0.00274 | 16.6049 | 144.7547 | 261.8424 | 14.32444 | – |
| 2026 Apr 13 17:57 | 2026 Apr 12 16:10:17 | 82.5282 | 0.00274 | 16.6049 | 144.7547 | 261.8424 | 14.32444 | – |
| 2026 Apr 12 17:57 | 2026 Apr 07 20:28:45 | 82.5301 | 0.00272 | 16.8819 | 157.7660 | 261.8424 | 14.32444 | – |
| 2026 Apr 11 17:57 | 2026 Apr 07 20:28:45 | 82.5301 | 0.00272 | 16.8819 | 157.7660 | 261.8424 | 14.32444 | – |
| 2026 Apr 10 17:58 | 2026 Apr 07 20:28:45 | 82.5301 | 0.00272 | 16.8819 | 157.7660 | 261.8424 | 14.32444 | – |
| 2026 Apr 09 18:01 | 2026 Apr 07 20:28:45 | 82.5301 | 0.00272 | 16.8819 | 157.7660 | 261.8424 | 14.32444 | – |
| 2026 Apr 08 17:57 | 2026 Apr 07 20:28:45 | 82.5301 | 0.00272 | 16.8819 | 157.7660 | 261.8424 | 14.32444 | – |
| 2026 Apr 07 17:57 | 2026 Apr 02 04:39:33 | 82.5295 | 0.00269 | 17.2072 | 173.9136 | 261.8424 | 14.32444 | – |
| 2026 Apr 06 17:57 | 2026 Apr 02 04:39:33 | 82.5295 | 0.00269 | 17.2072 | 173.9136 | 261.8424 | 14.32444 | – |